sensor_id;sensor_type;location;lat;lon;timestamp;P1;durP1;ratioP1;P2;durP2;ratioP2
17384;SDS011;8810;48.680;8.894;2023-04-28T00:01:51;5.23;;;3.10;;
17384;SDS011;8810;48.680;8.894;2023-04-28T00:04:17;6.60;;;3.73;;
17384;SDS011;8810;48.680;8.894;2023-04-28T00:06:44;6.07;;;3.30;;
17384;SDS011;8810;48.680;8.894;2023-04-28T00:09:11;4.40;;;3.00;;
17384;SDS011;8810;48.680;8.894;2023-04-28T00:11:38;5.60;;;3.07;;
17384;SDS011;8810;48.680;8.894;2023-04-28T00:14:06;6.13;;;3.07;;
17384;SDS011;8810;48.680;8.894;2023-04-28T00:16:33;4.80;;;3.00;;
17384;SDS011;8810;48.680;8.894;2023-04-28T00:19:00;5.37;;;2.93;;
17384;SDS011;8810;48.680;8.894;2023-04-28T00:21:27;9.63;;;3.50;;
17384;SDS011;8810;48.680;8.894;2023-04-28T00:23:54;5.17;;;2.83;;
17384;SDS011;8810;48.680;8.894;2023-04-28T00:26:21;6.63;;;3.00;;
17384;SDS011;8810;48.680;8.894;2023-04-28T00:28:47;7.77;;;3.20;;
17384;SDS011;8810;48.680;8.894;2023-04-28T00:31:16;6.20;;;3.23;;
17384;SDS011;8810;48.680;8.894;2023-04-28T00:33:43;5.83;;;3.33;;
17384;SDS011;8810;48.680;8.894;2023-04-28T00:36:10;9.07;;;3.57;;
17384;SDS011;8810;48.680;8.894;2023-04-28T00:38:37;5.23;;;3.13;;
17384;SDS011;8810;48.680;8.894;2023-04-28T00:41:04;8.53;;;3.40;;
17384;SDS011;8810;48.680;8.894;2023-04-28T00:43:31;4.97;;;3.10;;
17384;SDS011;8810;48.680;8.894;2023-04-28T00:46:09;4.67;;;3.33;;
17384;SDS011;8810;48.680;8.894;2023-04-28T00:48:38;8.13;;;3.43;;
17384;SDS011;8810;48.680;8.894;2023-04-28T00:51:05;7.03;;;3.13;;
17384;SDS011;8810;48.680;8.894;2023-04-28T00:53:32;5.93;;;3.20;;
17384;SDS011;8810;48.680;8.894;2023-04-28T00:56:00;3.80;;;2.77;;
17384;SDS011;8810;48.680;8.894;2023-04-28T00:58:27;6.30;;;3.50;;
17384;SDS011;8810;48.680;8.894;2023-04-28T01:01:00;5.57;;;3.57;;
17384;SDS011;8810;48.680;8.894;2023-04-28T01:03:28;5.23;;;3.10;;
17384;SDS011;8810;48.680;8.894;2023-04-28T01:05:56;3.83;;;3.20;;
17384;SDS011;8810;48.680;8.894;2023-04-28T01:08:26;5.10;;;3.07;;
17384;SDS011;8810;48.680;8.894;2023-04-28T01:10:54;6.63;;;3.40;;
17384;SDS011;8810;48.680;8.894;2023-04-28T01:13:21;4.40;;;3.23;;
17384;SDS011;8810;48.680;8.894;2023-04-28T01:15:48;4.70;;;3.17;;
17384;SDS011;8810;48.680;8.894;2023-04-28T01:18:15;4.57;;;3.03;;
17384;SDS011;8810;48.680;8.894;2023-04-28T01:20:42;6.27;;;3.13;;
17384;SDS011;8810;48.680;8.894;2023-04-28T01:23:11;4.57;;;3.20;;
17384;SDS011;8810;48.680;8.894;2023-04-28T01:25:40;3.77;;;2.70;;
17384;SDS011;8810;48.680;8.894;2023-04-28T01:28:07;8.87;;;3.07;;
17384;SDS011;8810;48.680;8.894;2023-04-28T01:30:35;4.67;;;2.90;;
17384;SDS011;8810;48.680;8.894;2023-04-28T01:33:02;6.07;;;3.07;;
17384;SDS011;8810;48.680;8.894;2023-04-28T01:35:29;9.03;;;2.97;;
17384;SDS011;8810;48.680;8.894;2023-04-28T01:37:56;5.37;;;3.13;;
17384;SDS011;8810;48.680;8.894;2023-04-28T01:40:22;4.63;;;3.07;;
17384;SDS011;8810;48.680;8.894;2023-04-28T01:42:51;3.77;;;3.03;;
17384;SDS011;8810;48.680;8.894;2023-04-28T01:45:18;8.03;;;3.23;;
17384;SDS011;8810;48.680;8.894;2023-04-28T01:47:44;10.30;;;2.90;;
17384;SDS011;8810;48.680;8.894;2023-04-28T01:50:11;4.70;;;2.67;;
17384;SDS011;8810;48.680;8.894;2023-04-28T01:52:38;5.17;;;3.13;;
17384;SDS011;8810;48.680;8.894;2023-04-28T01:55:05;6.60;;;2.70;;
17384;SDS011;8810;48.680;8.894;2023-04-28T01:57:51;4.30;;;2.97;;
17384;SDS011;8810;48.680;8.894;2023-04-28T02:00:18;3.77;;;2.90;;
17384;SDS011;8810;48.680;8.894;2023-04-28T02:02:45;4.70;;;2.83;;
17384;SDS011;8810;48.680;8.894;2023-04-28T02:05:12;5.60;;;3.20;;
17384;SDS011;8810;48.680;8.894;2023-04-28T02:07:39;4.27;;;2.80;;
17384;SDS011;8810;48.680;8.894;2023-04-28T02:10:06;7.57;;;3.73;;
17384;SDS011;8810;48.680;8.894;2023-04-28T02:12:34;4.13;;;3.40;;
17384;SDS011;8810;48.680;8.894;2023-04-28T02:15:02;5.13;;;2.93;;
17384;SDS011;8810;48.680;8.894;2023-04-28T02:17:29;5.67;;;3.00;;
17384;SDS011;8810;48.680;8.894;2023-04-28T02:19:56;6.03;;;3.20;;
17384;SDS011;8810;48.680;8.894;2023-04-28T02:22:23;6.80;;;3.33;;
17384;SDS011;8810;48.680;8.894;2023-04-28T02:24:50;5.20;;;3.20;;
17384;SDS011;8810;48.680;8.894;2023-04-28T02:27:17;4.47;;;2.73;;
17384;SDS011;8810;48.680;8.894;2023-04-28T02:29:44;5.67;;;3.17;;
17384;SDS011;8810;48.680;8.894;2023-04-28T02:32:13;7.17;;;3.40;;
17384;SDS011;8810;48.680;8.894;2023-04-28T02:34:39;3.20;;;2.70;;
17384;SDS011;8810;48.680;8.894;2023-04-28T02:37:06;4.97;;;2.73;;
17384;SDS011;8810;48.680;8.894;2023-04-28T02:39:33;6.43;;;3.40;;
17384;SDS011;8810;48.680;8.894;2023-04-28T02:42:00;6.33;;;3.30;;
17384;SDS011;8810;48.680;8.894;2023-04-28T02:44:27;4.73;;;2.90;;
17384;SDS011;8810;48.680;8.894;2023-04-28T02:46:54;5.77;;;3.30;;
17384;SDS011;8810;48.680;8.894;2023-04-28T02:49:22;4.47;;;3.20;;
17384;SDS011;8810;48.680;8.894;2023-04-28T02:51:49;7.13;;;3.20;;
17384;SDS011;8810;48.680;8.894;2023-04-28T02:54:16;8.13;;;3.83;;
17384;SDS011;8810;48.680;8.894;2023-04-28T02:56:51;6.87;;;3.10;;
17384;SDS011;8810;48.680;8.894;2023-04-28T02:59:18;4.93;;;3.43;;
17384;SDS011;8810;48.680;8.894;2023-04-28T03:01:45;4.87;;;2.90;;
17384;SDS011;8810;48.680;8.894;2023-04-28T03:04:11;4.47;;;3.20;;
17384;SDS011;8810;48.680;8.894;2023-04-28T03:06:40;5.87;;;3.20;;
17384;SDS011;8810;48.680;8.894;2023-04-28T03:09:07;4.50;;;3.40;;
17384;SDS011;8810;48.680;8.894;2023-04-28T03:11:34;5.27;;;3.33;;
17384;SDS011;8810;48.680;8.894;2023-04-28T03:14:01;4.40;;;3.00;;
17384;SDS011;8810;48.680;8.894;2023-04-28T03:16:28;6.67;;;3.30;;
17384;SDS011;8810;48.680;8.894;2023-04-28T03:18:55;10.23;;;3.17;;
17384;SDS011;8810;48.680;8.894;2023-04-28T03:21:22;5.77;;;2.93;;
17384;SDS011;8810;48.680;8.894;2023-04-28T03:23:52;5.77;;;3.30;;
17384;SDS011;8810;48.680;8.894;2023-04-28T03:26:18;5.23;;;2.83;;
17384;SDS011;8810;48.680;8.894;2023-04-28T03:28:46;5.57;;;3.33;;
17384;SDS011;8810;48.680;8.894;2023-04-28T03:31:13;10.13;;;3.67;;
17384;SDS011;8810;48.680;8.894;2023-04-28T03:33:39;7.07;;;3.00;;
17384;SDS011;8810;48.680;8.894;2023-04-28T03:36:09;4.17;;;3.00;;
17384;SDS011;8810;48.680;8.894;2023-04-28T03:38:36;6.13;;;3.10;;
17384;SDS011;8810;48.680;8.894;2023-04-28T03:41:04;5.37;;;3.00;;
17384;SDS011;8810;48.680;8.894;2023-04-28T03:43:31;4.33;;;2.87;;
17384;SDS011;8810;48.680;8.894;2023-04-28T03:45:59;8.50;;;3.17;;
17384;SDS011;8810;48.680;8.894;2023-04-28T03:48:26;6.23;;;3.50;;
17384;SDS011;8810;48.680;8.894;2023-04-28T03:50:53;5.17;;;3.10;;
17384;SDS011;8810;48.680;8.894;2023-04-28T03:53:20;5.57;;;3.10;;
17384;SDS011;8810;48.680;8.894;2023-04-28T03:55:46;3.90;;;2.87;;
17384;SDS011;8810;48.680;8.894;2023-04-28T03:58:15;7.10;;;3.20;;
17384;SDS011;8810;48.680;8.894;2023-04-28T04:00:42;3.87;;;2.90;;
17384;SDS011;8810;48.680;8.894;2023-04-28T04:03:08;5.57;;;3.10;;
17384;SDS011;8810;48.680;8.894;2023-04-28T04:05:36;4.60;;;4.00;;
17384;SDS011;8810;48.680;8.894;2023-04-28T04:08:05;6.20;;;3.90;;
17384;SDS011;8810;48.680;8.894;2023-04-28T04:10:32;6.87;;;3.50;;
17384;SDS011;8810;48.680;8.894;2023-04-28T04:12:59;6.73;;;3.87;;
17384;SDS011;8810;48.680;8.894;2023-04-28T04:15:27;6.23;;;3.20;;
17384;SDS011;8810;48.680;8.894;2023-04-28T04:17:54;5.73;;;3.40;;
17384;SDS011;8810;48.680;8.894;2023-04-28T04:20:20;5.83;;;3.50;;
17384;SDS011;8810;48.680;8.894;2023-04-28T04:22:47;5.87;;;3.70;;
17384;SDS011;8810;48.680;8.894;2023-04-28T04:25:14;6.30;;;3.43;;
17384;SDS011;8810;48.680;8.894;2023-04-28T04:27:41;4.63;;;3.07;;
17384;SDS011;8810;48.680;8.894;2023-04-28T04:30:08;4.13;;;3.23;;
17384;SDS011;8810;48.680;8.894;2023-04-28T04:32:37;6.60;;;3.23;;
17384;SDS011;8810;48.680;8.894;2023-04-28T04:35:04;4.47;;;3.23;;
17384;SDS011;8810;48.680;8.894;2023-04-28T04:37:31;3.73;;;2.83;;
17384;SDS011;8810;48.680;8.894;2023-04-28T04:39:59;6.83;;;2.97;;
17384;SDS011;8810;48.680;8.894;2023-04-28T04:42:26;4.37;;;3.00;;
17384;SDS011;8810;48.680;8.894;2023-04-28T04:44:52;5.77;;;3.30;;
17384;SDS011;8810;48.680;8.894;2023-04-28T04:47:19;4.93;;;3.20;;
17384;SDS011;8810;48.680;8.894;2023-04-28T04:49:48;4.07;;;3.00;;
17384;SDS011;8810;48.680;8.894;2023-04-28T04:52:15;6.77;;;3.40;;
17384;SDS011;8810;48.680;8.894;2023-04-28T04:54:41;8.13;;;3.57;;
17384;SDS011;8810;48.680;8.894;2023-04-28T04:57:08;6.80;;;3.60;;
17384;SDS011;8810;48.680;8.894;2023-04-28T04:59:36;4.50;;;3.27;;
17384;SDS011;8810;48.680;8.894;2023-04-28T05:02:02;6.67;;;3.33;;
17384;SDS011;8810;48.680;8.894;2023-04-28T05:04:29;7.63;;;3.40;;
17384;SDS011;8810;48.680;8.894;2023-04-28T05:06:57;5.50;;;3.33;;
17384;SDS011;8810;48.680;8.894;2023-04-28T05:09:24;5.33;;;3.53;;
17384;SDS011;8810;48.680;8.894;2023-04-28T05:11:51;5.13;;;3.60;;
17384;SDS011;8810;48.680;8.894;2023-04-28T05:14:18;5.50;;;3.60;;
17384;SDS011;8810;48.680;8.894;2023-04-28T05:16:45;6.87;;;3.67;;
17384;SDS011;8810;48.680;8.894;2023-04-28T05:21:51;5.93;;;4.10;;
17384;SDS011;8810;48.680;8.894;2023-04-28T05:24:21;5.17;;;3.83;;
17384;SDS011;8810;48.680;8.894;2023-04-28T05:26:48;8.93;;;4.63;;
17384;SDS011;8810;48.680;8.894;2023-04-28T05:29:15;7.07;;;4.10;;
17384;SDS011;8810;48.680;8.894;2023-04-28T05:31:42;5.83;;;3.70;;
17384;SDS011;8810;48.680;8.894;2023-04-28T05:34:09;7.33;;;3.87;;
17384;SDS011;8810;48.680;8.894;2023-04-28T05:36:36;6.27;;;3.73;;
17384;SDS011;8810;48.680;8.894;2023-04-28T05:39:03;5.03;;;3.70;;
17384;SDS011;8810;48.680;8.894;2023-04-28T05:41:33;6.17;;;3.97;;
17384;SDS011;8810;48.680;8.894;2023-04-28T05:44:00;8.43;;;3.97;;
17384;SDS011;8810;48.680;8.894;2023-04-28T05:46:27;6.17;;;4.07;;
17384;SDS011;8810;48.680;8.894;2023-04-28T05:48:54;7.43;;;4.07;;
17384;SDS011;8810;48.680;8.894;2023-04-28T05:51:21;5.37;;;3.73;;
17384;SDS011;8810;48.680;8.894;2023-04-28T05:53:48;8.60;;;4.57;;
17384;SDS011;8810;48.680;8.894;2023-04-28T05:56:15;11.10;;;7.30;;
17384;SDS011;8810;48.680;8.894;2023-04-28T05:58:43;10.40;;;7.30;;
17384;SDS011;8810;48.680;8.894;2023-04-28T06:01:29;7.47;;;4.70;;
17384;SDS011;8810;48.680;8.894;2023-04-28T06:04:19;7.97;;;4.60;;
17384;SDS011;8810;48.680;8.894;2023-04-28T06:07:06;9.37;;;5.03;;
17384;SDS011;8810;48.680;8.894;2023-04-28T06:09:57;11.10;;;4.47;;
17384;SDS011;8810;48.680;8.894;2023-04-28T06:12:44;6.40;;;4.30;;
17384;SDS011;8810;48.680;8.894;2023-04-28T06:15:36;5.70;;;4.10;;
17384;SDS011;8810;48.680;8.894;2023-04-28T06:18:25;5.53;;;4.33;;
17384;SDS011;8810;48.680;8.894;2023-04-28T06:35:05;12.03;;;6.40;;
17384;SDS011;8810;48.680;8.894;2023-04-28T06:37:32;11.10;;;5.40;;
17384;SDS011;8810;48.680;8.894;2023-04-28T06:39:59;8.40;;;5.67;;
17384;SDS011;8810;48.680;8.894;2023-04-28T06:42:26;9.70;;;5.40;;
17384;SDS011;8810;48.680;8.894;2023-04-28T06:44:53;7.00;;;4.17;;
17384;SDS011;8810;48.680;8.894;2023-04-28T06:47:20;6.30;;;4.23;;
17384;SDS011;8810;48.680;8.894;2023-04-28T06:49:47;6.63;;;4.53;;
17384;SDS011;8810;48.680;8.894;2023-04-28T06:52:15;11.90;;;5.33;;
17384;SDS011;8810;48.680;8.894;2023-04-28T06:54:43;7.27;;;4.97;;
17384;SDS011;8810;48.680;8.894;2023-04-28T06:57:10;7.70;;;4.77;;
17384;SDS011;8810;48.680;8.894;2023-04-28T06:59:37;9.60;;;4.40;;
17384;SDS011;8810;48.680;8.894;2023-04-28T07:02:04;7.93;;;4.80;;
17384;SDS011;8810;48.680;8.894;2023-04-28T07:04:30;7.13;;;4.60;;
17384;SDS011;8810;48.680;8.894;2023-04-28T07:06:57;7.47;;;4.30;;
17384;SDS011;8810;48.680;8.894;2023-04-28T07:09:25;7.20;;;4.93;;
17384;SDS011;8810;48.680;8.894;2023-04-28T07:11:52;6.70;;;4.30;;
17384;SDS011;8810;48.680;8.894;2023-04-28T07:14:19;7.53;;;4.13;;
17384;SDS011;8810;48.680;8.894;2023-04-28T07:16:46;7.37;;;4.87;;
17384;SDS011;8810;48.680;8.894;2023-04-28T07:19:13;8.53;;;4.60;;
17384;SDS011;8810;48.680;8.894;2023-04-28T07:21:40;5.70;;;4.20;;
17384;SDS011;8810;48.680;8.894;2023-04-28T07:24:07;8.63;;;4.97;;
17384;SDS011;8810;48.680;8.894;2023-04-28T07:26:35;6.30;;;4.60;;
17384;SDS011;8810;48.680;8.894;2023-04-28T07:29:02;5.10;;;4.00;;
17384;SDS011;8810;48.680;8.894;2023-04-28T07:31:29;6.73;;;4.77;;
17384;SDS011;8810;48.680;8.894;2023-04-28T07:33:56;7.43;;;4.63;;
17384;SDS011;8810;48.680;8.894;2023-04-28T07:36:22;6.77;;;4.37;;
17384;SDS011;8810;48.680;8.894;2023-04-28T07:38:50;7.13;;;5.00;;
17384;SDS011;8810;48.680;8.894;2023-04-28T07:41:17;8.10;;;4.67;;
17384;SDS011;8810;48.680;8.894;2023-04-28T07:43:45;9.80;;;4.90;;
17384;SDS011;8810;48.680;8.894;2023-04-28T07:46:12;6.77;;;4.70;;
17384;SDS011;8810;48.680;8.894;2023-04-28T07:48:38;8.73;;;5.30;;
17384;SDS011;8810;48.680;8.894;2023-04-28T07:51:05;9.47;;;5.07;;
17384;SDS011;8810;48.680;8.894;2023-04-28T07:53:32;6.17;;;4.47;;
17384;SDS011;8810;48.680;8.894;2023-04-28T07:55:59;6.83;;;5.20;;
17384;SDS011;8810;48.680;8.894;2023-04-28T07:58:26;10.37;;;5.00;;
17384;SDS011;8810;48.680;8.894;2023-04-28T08:00:54;11.10;;;5.27;;
17384;SDS011;8810;48.680;8.894;2023-04-28T08:03:21;10.27;;;5.80;;
17384;SDS011;8810;48.680;8.894;2023-04-28T08:05:48;10.57;;;6.07;;
17384;SDS011;8810;48.680;8.894;2023-04-28T08:08:15;15.00;;;6.40;;
17384;SDS011;8810;48.680;8.894;2023-04-28T08:10:42;15.60;;;5.90;;
17384;SDS011;8810;48.680;8.894;2023-04-28T08:13:09;8.17;;;5.47;;
17384;SDS011;8810;48.680;8.894;2023-04-28T08:15:36;15.07;;;5.90;;
17384;SDS011;8810;48.680;8.894;2023-04-28T08:18:04;8.43;;;5.27;;
17384;SDS011;8810;48.680;8.894;2023-04-28T08:20:32;12.47;;;5.50;;
17384;SDS011;8810;48.680;8.894;2023-04-28T08:22:59;9.37;;;5.30;;
17384;SDS011;8810;48.680;8.894;2023-04-28T08:25:26;9.73;;;4.73;;
17384;SDS011;8810;48.680;8.894;2023-04-28T08:27:53;9.87;;;5.03;;
17384;SDS011;8810;48.680;8.894;2023-04-28T08:30:20;7.30;;;4.23;;
17384;SDS011;8810;48.680;8.894;2023-04-28T08:32:47;9.00;;;4.83;;
17384;SDS011;8810;48.680;8.894;2023-04-28T08:35:15;6.97;;;3.73;;
17384;SDS011;8810;48.680;8.894;2023-04-28T08:37:43;4.73;;;3.50;;
17384;SDS011;8810;48.680;8.894;2023-04-28T08:40:10;4.20;;;3.40;;
17384;SDS011;8810;48.680;8.894;2023-04-28T08:42:38;7.90;;;3.67;;
17384;SDS011;8810;48.680;8.894;2023-04-28T08:45:06;3.37;;;2.07;;
17384;SDS011;8810;48.680;8.894;2023-04-28T08:47:34;4.73;;;2.50;;
17384;SDS011;8810;48.680;8.894;2023-04-28T08:50:02;4.03;;;2.40;;
17384;SDS011;8810;48.680;8.894;2023-04-28T08:52:31;3.30;;;2.03;;
17384;SDS011;8810;48.680;8.894;2023-04-28T08:54:59;3.50;;;1.80;;
17384;SDS011;8810;48.680;8.894;2023-04-28T08:57:29;2.77;;;1.80;;
17384;SDS011;8810;48.680;8.894;2023-04-28T09:00:01;2.13;;;1.80;;
17384;SDS011;8810;48.680;8.894;2023-04-28T09:02:28;1.80;;;1.57;;
17384;SDS011;8810;48.680;8.894;2023-04-28T09:04:55;3.10;;;1.50;;
17384;SDS011;8810;48.680;8.894;2023-04-28T09:07:22;1.30;;;1.20;;
17384;SDS011;8810;48.680;8.894;2023-04-28T09:09:53;2.43;;;1.50;;
17384;SDS011;8810;48.680;8.894;2023-04-28T09:12:41;1.50;;;1.30;;
17384;SDS011;8810;48.680;8.894;2023-04-28T09:15:08;2.17;;;1.40;;
17384;SDS011;8810;48.680;8.894;2023-04-28T09:17:46;2.03;;;1.40;;
17384;SDS011;8810;48.680;8.894;2023-04-28T09:20:18;1.27;;;1.17;;
17384;SDS011;8810;48.680;8.894;2023-04-28T09:22:48;1.40;;;1.30;;
17384;SDS011;8810;48.680;8.894;2023-04-28T09:25:17;2.23;;;1.00;;
17384;SDS011;8810;48.680;8.894;2023-04-28T09:27:46;1.73;;;1.27;;
17384;SDS011;8810;48.680;8.894;2023-04-28T09:30:13;2.47;;;1.20;;
17384;SDS011;8810;48.680;8.894;2023-04-28T09:32:40;1.73;;;0.90;;
17384;SDS011;8810;48.680;8.894;2023-04-28T09:35:07;1.63;;;1.10;;
17384;SDS011;8810;48.680;8.894;2023-04-28T09:37:34;3.13;;;1.03;;
17384;SDS011;8810;48.680;8.894;2023-04-28T09:40:02;1.27;;;1.07;;
17384;SDS011;8810;48.680;8.894;2023-04-28T09:42:35;4.03;;;1.10;;
17384;SDS011;8810;48.680;8.894;2023-04-28T09:45:03;2.33;;;1.33;;
17384;SDS011;8810;48.680;8.894;2023-04-28T09:47:31;3.47;;;1.30;;
17384;SDS011;8810;48.680;8.894;2023-04-28T09:50:01;1.57;;;1.10;;
17384;SDS011;8810;48.680;8.894;2023-04-28T09:52:30;2.43;;;1.10;;
17384;SDS011;8810;48.680;8.894;2023-04-28T09:55:00;1.93;;;1.20;;
17384;SDS011;8810;48.680;8.894;2023-04-28T09:57:29;4.27;;;1.47;;
17384;SDS011;8810;48.680;8.894;2023-04-28T09:59:58;2.20;;;0.90;;
17384;SDS011;8810;48.680;8.894;2023-04-28T10:02:25;0.60;;;0.60;;
17384;SDS011;8810;48.680;8.894;2023-04-28T10:04:53;1.60;;;0.77;;
17384;SDS011;8810;48.680;8.894;2023-04-28T10:07:20;0.73;;;0.40;;
17384;SDS011;8810;48.680;8.894;2023-04-28T10:09:47;2.13;;;0.40;;
17384;SDS011;8810;48.680;8.894;2023-04-28T10:12:15;0.30;;;0.30;;
17384;SDS011;8810;48.680;8.894;2023-04-28T10:14:42;1.47;;;0.57;;
17384;SDS011;8810;48.680;8.894;2023-04-28T10:17:11;0.90;;;0.60;;
17384;SDS011;8810;48.680;8.894;2023-04-28T10:19:40;0.60;;;0.50;;
17384;SDS011;8810;48.680;8.894;2023-04-28T10:22:23;0.60;;;0.50;;
17384;SDS011;8810;48.680;8.894;2023-04-28T10:25:06;1.00;;;0.50;;
17384;SDS011;8810;48.680;8.894;2023-04-28T10:27:43;0.97;;;0.63;;
17384;SDS011;8810;48.680;8.894;2023-04-28T10:30:12;0.40;;;0.40;;
17384;SDS011;8810;48.680;8.894;2023-04-28T10:32:41;0.73;;;0.40;;
17384;SDS011;8810;48.680;8.894;2023-04-28T10:35:39;1.20;;;0.43;;
17384;SDS011;8810;48.680;8.894;2023-04-28T10:38:07;0.80;;;0.40;;
17384;SDS011;8810;48.680;8.894;2023-04-28T10:40:36;3.30;;;0.57;;
17384;SDS011;8810;48.680;8.894;2023-04-28T10:43:05;0.40;;;0.40;;
17384;SDS011;8810;48.680;8.894;2023-04-28T10:51:30;0.57;;;0.27;;
17384;SDS011;8810;48.680;8.894;2023-04-28T10:54:13;1.40;;;0.40;;
17384;SDS011;8810;48.680;8.894;2023-04-28T10:59:43;1.30;;;0.40;;
17384;SDS011;8810;48.680;8.894;2023-04-28T11:05:11;0.87;;;0.30;;
17384;SDS011;8810;48.680;8.894;2023-04-28T11:13:47;3.40;;;0.50;;
17384;SDS011;8810;48.680;8.894;2023-04-28T11:16:15;0.43;;;0.30;;
17384;SDS011;8810;48.680;8.894;2023-04-28T11:23:57;0.30;;;0.30;;
17384;SDS011;8810;48.680;8.894;2023-04-28T11:26:24;0.73;;;0.30;;
17384;SDS011;8810;48.680;8.894;2023-04-28T11:28:53;1.13;;;0.40;;
17384;SDS011;8810;48.680;8.894;2023-04-28T11:31:21;3.03;;;0.40;;
17384;SDS011;8810;48.680;8.894;2023-04-28T11:33:53;1.75;;;0.40;;
17384;SDS011;8810;48.680;8.894;2023-04-28T11:36:27;0.30;;;0.30;;
17384;SDS011;8810;48.680;8.894;2023-04-28T11:38:58;0.85;;;0.40;;
17384;SDS011;8810;48.680;8.894;2023-04-28T11:41:25;0.82;;;0.50;;
17384;SDS011;8810;48.680;8.894;2023-04-28T11:43:52;1.13;;;0.60;;
17384;SDS011;8810;48.680;8.894;2023-04-28T11:46:20;0.98;;;0.90;;
17384;SDS011;8810;48.680;8.894;2023-04-28T11:48:47;0.82;;;0.30;;
17384;SDS011;8810;48.680;8.894;2023-04-28T11:51:31;1.95;;;0.30;;
17384;SDS011;8810;48.680;8.894;2023-04-28T11:54:01;27.10;;;2.13;;
17384;SDS011;8810;48.680;8.894;2023-04-28T11:56:29;1.75;;;0.30;;
17384;SDS011;8810;48.680;8.894;2023-04-28T11:59:03;0.75;;;0.30;;
17384;SDS011;8810;48.680;8.894;2023-04-28T12:01:32;1.38;;;0.20;;
17384;SDS011;8810;48.680;8.894;2023-04-28T12:04:01;0.52;;;0.35;;
17384;SDS011;8810;48.680;8.894;2023-04-28T12:06:28;0.43;;;0.30;;
17384;SDS011;8810;48.680;8.894;2023-04-28T12:08:56;1.67;;;0.60;;
17384;SDS011;8810;48.680;8.894;2023-04-28T12:11:29;0.35;;;0.20;;
17384;SDS011;8810;48.680;8.894;2023-04-28T12:14:03;0.80;;;0.30;;
17384;SDS011;8810;48.680;8.894;2023-04-28T12:16:40;2.25;;;0.30;;
17384;SDS011;8810;48.680;8.894;2023-04-28T12:19:09;0.30;;;0.30;;
17384;SDS011;8810;48.680;8.894;2023-04-28T12:21:37;1.08;;;0.30;;
17384;SDS011;8810;48.680;8.894;2023-04-28T12:24:14;0.57;;;0.30;;
17384;SDS011;8810;48.680;8.894;2023-04-28T12:26:43;0.30;;;0.20;;
17384;SDS011;8810;48.680;8.894;2023-04-28T12:32:03;0.50;;;0.47;;
17384;SDS011;8810;48.680;8.894;2023-04-28T12:34:30;3.35;;;0.70;;
17384;SDS011;8810;48.680;8.894;2023-04-28T12:36:58;0.95;;;0.25;;
17384;SDS011;8810;48.680;8.894;2023-04-28T12:39:25;1.58;;;0.40;;
17384;SDS011;8810;48.680;8.894;2023-04-28T12:41:54;0.73;;;0.40;;
17384;SDS011;8810;48.680;8.894;2023-04-28T12:44:23;0.90;;;0.50;;
17384;SDS011;8810;48.680;8.894;2023-04-28T12:46:52;1.17;;;0.40;;
17384;SDS011;8810;48.680;8.894;2023-04-28T12:49:19;1.35;;;0.30;;
17384;SDS011;8810;48.680;8.894;2023-04-28T12:51:47;0.30;;;0.20;;
17384;SDS011;8810;48.680;8.894;2023-04-28T12:54:14;0.35;;;0.30;;
17384;SDS011;8810;48.680;8.894;2023-04-28T12:56:40;0.20;;;0.20;;
17384;SDS011;8810;48.680;8.894;2023-04-28T12:59:09;0.35;;;0.30;;
17384;SDS011;8810;48.680;8.894;2023-04-28T13:01:36;0.40;;;0.38;;
17384;SDS011;8810;48.680;8.894;2023-04-28T13:04:03;0.43;;;0.28;;
17384;SDS011;8810;48.680;8.894;2023-04-28T13:06:30;0.30;;;0.20;;
17384;SDS011;8810;48.680;8.894;2023-04-28T13:08:57;0.30;;;0.30;;
17384;SDS011;8810;48.680;8.894;2023-04-28T13:11:24;0.20;;;0.20;;
17384;SDS011;8810;48.680;8.894;2023-04-28T13:13:52;0.30;;;0.30;;
17384;SDS011;8810;48.680;8.894;2023-04-28T13:16:22;0.63;;;0.43;;
17384;SDS011;8810;48.680;8.894;2023-04-28T13:18:54;0.90;;;0.30;;
17384;SDS011;8810;48.680;8.894;2023-04-28T13:21:21;1.58;;;0.30;;
17384;SDS011;8810;48.680;8.894;2023-04-28T13:23:49;1.08;;;0.32;;
17384;SDS011;8810;48.680;8.894;2023-04-28T13:26:15;0.35;;;0.30;;
17384;SDS011;8810;48.680;8.894;2023-04-28T13:28:43;2.78;;;0.40;;
17384;SDS011;8810;48.680;8.894;2023-04-28T13:31:10;1.92;;;0.57;;
17384;SDS011;8810;48.680;8.894;2023-04-28T13:33:39;0.55;;;0.30;;
17384;SDS011;8810;48.680;8.894;2023-04-28T13:36:06;2.85;;;0.30;;
17384;SDS011;8810;48.680;8.894;2023-04-28T13:38:33;0.50;;;0.30;;
17384;SDS011;8810;48.680;8.894;2023-04-28T13:41:00;0.60;;;0.30;;
17384;SDS011;8810;48.680;8.894;2023-04-28T13:43:27;0.65;;;0.30;;
17384;SDS011;8810;48.680;8.894;2023-04-28T13:45:55;0.65;;;0.20;;
17384;SDS011;8810;48.680;8.894;2023-04-28T13:48:22;0.93;;;0.40;;
17384;SDS011;8810;48.680;8.894;2023-04-28T13:50:50;1.10;;;0.30;;
17384;SDS011;8810;48.680;8.894;2023-04-28T13:53:17;0.40;;;0.40;;
17384;SDS011;8810;48.680;8.894;2023-04-28T13:55:44;0.20;;;0.20;;
17384;SDS011;8810;48.680;8.894;2023-04-28T13:58:11;0.40;;;0.20;;
17384;SDS011;8810;48.680;8.894;2023-04-28T14:00:38;0.43;;;0.30;;
17384;SDS011;8810;48.680;8.894;2023-04-28T14:03:05;0.40;;;0.40;;
17384;SDS011;8810;48.680;8.894;2023-04-28T14:05:33;0.67;;;0.40;;
17384;SDS011;8810;48.680;8.894;2023-04-28T14:08:02;1.30;;;0.40;;
17384;SDS011;8810;48.680;8.894;2023-04-28T14:10:30;0.52;;;0.47;;
17384;SDS011;8810;48.680;8.894;2023-04-28T14:12:57;0.40;;;0.27;;
17384;SDS011;8810;48.680;8.894;2023-04-28T14:15:24;3.73;;;0.50;;
17384;SDS011;8810;48.680;8.894;2023-04-28T14:17:50;0.40;;;0.40;;
17384;SDS011;8810;48.680;8.894;2023-04-28T14:20:17;0.83;;;0.30;;
17384;SDS011;8810;48.680;8.894;2023-04-28T14:22:44;1.33;;;0.50;;
17384;SDS011;8810;48.680;8.894;2023-04-28T14:25:12;1.17;;;0.77;;
17384;SDS011;8810;48.680;8.894;2023-04-28T14:27:39;0.60;;;0.40;;
17384;SDS011;8810;48.680;8.894;2023-04-28T14:30:07;0.53;;;0.40;;
17384;SDS011;8810;48.680;8.894;2023-04-28T14:32:34;1.60;;;0.40;;
17384;SDS011;8810;48.680;8.894;2023-04-28T14:35:02;1.80;;;0.40;;
17384;SDS011;8810;48.680;8.894;2023-04-28T14:37:30;0.40;;;0.20;;
17384;SDS011;8810;48.680;8.894;2023-04-28T14:39:57;1.00;;;0.53;;
17384;SDS011;8810;48.680;8.894;2023-04-28T14:42:27;3.63;;;0.30;;
17384;SDS011;8810;48.680;8.894;2023-04-28T14:44:56;1.37;;;0.40;;
17384;SDS011;8810;48.680;8.894;2023-04-28T14:47:23;0.50;;;0.30;;
17384;SDS011;8810;48.680;8.894;2023-04-28T14:49:50;0.77;;;0.40;;
17384;SDS011;8810;48.680;8.894;2023-04-28T14:52:18;0.87;;;0.70;;
17384;SDS011;8810;48.680;8.894;2023-04-28T14:54:45;1.10;;;0.60;;
17384;SDS011;8810;48.680;8.894;2023-04-28T14:57:12;0.37;;;0.30;;
17384;SDS011;8810;48.680;8.894;2023-04-28T14:59:40;0.30;;;0.30;;
17384;SDS011;8810;48.680;8.894;2023-04-28T15:02:07;0.23;;;0.23;;
17384;SDS011;8810;48.680;8.894;2023-04-28T15:04:35;0.50;;;0.40;;
17384;SDS011;8810;48.680;8.894;2023-04-28T15:07:02;0.53;;;0.40;;
17384;SDS011;8810;48.680;8.894;2023-04-28T15:09:30;0.67;;;0.50;;
17384;SDS011;8810;48.680;8.894;2023-04-28T15:11:57;0.97;;;0.80;;
17384;SDS011;8810;48.680;8.894;2023-04-28T15:14:23;0.40;;;0.40;;
17384;SDS011;8810;48.680;8.894;2023-04-28T15:16:52;1.90;;;0.50;;
17384;SDS011;8810;48.680;8.894;2023-04-28T15:19:19;0.93;;;0.40;;
17384;SDS011;8810;48.680;8.894;2023-04-28T15:21:46;0.30;;;0.30;;
17384;SDS011;8810;48.680;8.894;2023-04-28T15:24:13;0.63;;;0.40;;
17384;SDS011;8810;48.680;8.894;2023-04-28T15:26:40;0.40;;;0.40;;
17384;SDS011;8810;48.680;8.894;2023-04-28T15:29:07;0.93;;;0.47;;
17384;SDS011;8810;48.680;8.894;2023-04-28T15:31:35;1.07;;;0.40;;
17384;SDS011;8810;48.680;8.894;2023-04-28T15:34:03;0.90;;;0.40;;
17384;SDS011;8810;48.680;8.894;2023-04-28T15:36:30;1.40;;;0.50;;
17384;SDS011;8810;48.680;8.894;2023-04-28T15:39:01;0.97;;;0.40;;
17384;SDS011;8810;48.680;8.894;2023-04-28T15:41:30;1.37;;;0.40;;
17384;SDS011;8810;48.680;8.894;2023-04-28T15:43:57;1.33;;;1.07;;
17384;SDS011;8810;48.680;8.894;2023-04-28T15:46:24;1.90;;;1.13;;
17384;SDS011;8810;48.680;8.894;2023-04-28T15:48:51;1.90;;;1.10;;
17384;SDS011;8810;48.680;8.894;2023-04-28T15:51:20;0.43;;;0.40;;